createdAt,value
2022-12-08T00:01:54.712Z,98148.78
2022-12-08T00:03:58.981Z,98154.41
2022-12-08T00:06:24.700Z,98156.91
2022-12-08T00:08:47.599Z,98155.25
2022-12-08T00:10:52.085Z,98153.59
2022-12-08T00:12:53.783Z,98150.88
2022-12-08T00:14:56.838Z,98150.09
2022-12-08T00:17:00.186Z,98152.53
2022-12-08T00:19:01.808Z,98140.31
2022-12-08T00:21:04.511Z,98138.16
2022-12-08T00:23:06.165Z,98139.56
2022-12-08T00:25:07.899Z,98136.88
2022-12-08T00:27:12.194Z,98133.34
2022-12-08T00:29:17.579Z,98132.53
2022-12-08T00:31:19.619Z,98134.16
2022-12-08T00:33:26.295Z,98131.44
2022-12-08T00:35:28.017Z,98138.75
2022-12-08T00:37:29.875Z,98136.88
2022-12-08T00:39:31.563Z,98137.94
2022-12-08T00:41:51.807Z,98135.00
2022-12-08T00:43:53.302Z,98129.56
2022-12-08T00:45:57.770Z,98130.41
2022-12-08T00:47:59.457Z,98129.94
2022-12-08T00:50:01.066Z,98132.03
2022-12-08T00:52:03.091Z,98126.59
2022-12-08T00:54:05.778Z,98123.31
2022-12-08T00:56:07.695Z,98121.19
2022-12-08T00:58:09.233Z,98124.16
2022-12-08T01:00:11.178Z,98129.00
2022-12-08T01:02:14.813Z,98126.28
2022-12-08T01:04:18.774Z,98130.63
2022-12-08T01:06:20.786Z,98124.41
2022-12-08T01:08:22.391Z,98128.75
2022-12-08T01:10:24.108Z,98138.16
2022-12-08T01:12:25.875Z,98132.16
2022-12-08T01:14:27.525Z,98135.72
2022-12-08T01:16:32.399Z,98132.16
2022-12-08T01:18:37.739Z,98135.94
2022-12-08T01:20:39.372Z,98135.13
2022-12-08T01:22:41.133Z,98129.47
2022-12-08T01:24:42.680Z,98130.28
2022-12-08T01:26:44.995Z,98135.13
2022-12-08T01:28:51.575Z,98138.88
2022-12-08T01:30:56.575Z,98131.81
2022-12-08T01:32:58.996Z,98133.72
2022-12-08T01:35:00.421Z,98131.59
2022-12-08T01:37:01.976Z,98136.75
2022-12-08T01:39:06.124Z,98132.41
2022-12-08T01:41:11.466Z,98132.16
2022-12-08T01:43:19.283Z,98128.06
2022-12-08T01:45:28.162Z,98138.88
2022-12-08T01:47:46.783Z,98132.88
2022-12-08T01:49:51.512Z,98130.19
2022-12-08T01:52:12.083Z,98122.63
2022-12-08T01:54:17.041Z,98120.97
2022-12-08T01:56:51.841Z,98115.56
2022-12-08T01:58:55.582Z,98114.75
2022-12-08T02:00:57.403Z,98118.28
2022-12-08T02:03:02.703Z,98113.47
2022-12-08T02:05:06.146Z,98118.88
2022-12-08T02:07:09.829Z,98113.47
2022-12-08T02:09:12.146Z,98115.56
2022-12-08T02:11:14.060Z,98114.97
2022-12-08T02:13:20.295Z,98104.50
2022-12-08T02:15:33.073Z,98106.03
2022-12-08T02:17:50.080Z,98105.81
2022-12-08T02:20:20.789Z,98101.91
2022-12-08T02:22:39.136Z,98101.91
2022-12-08T02:24:44.504Z,98096.50
2022-12-08T02:27:04.882Z,98090.84
2022-12-08T02:29:25.862Z,98094.38
2022-12-08T02:32:02.870Z,98093.19
2022-12-08T02:34:30.888Z,98082.03
2022-12-08T02:36:50.313Z,98082.25
2022-12-08T02:38:57.648Z,98082.50
2022-12-08T02:41:24.410Z,98078.50
2022-12-08T02:43:48.410Z,98075.22
2022-12-08T02:46:05.404Z,98074.59
2022-12-08T02:48:09.328Z,98065.44
2022-12-08T02:50:12.116Z,98069.78
2022-12-08T02:52:13.625Z,98067.66
2022-12-08T02:54:15.447Z,98067.41
2022-12-08T02:56:44.751Z,98062.25
2022-12-08T02:59:00.940Z,98070.00
2022-12-08T03:01:44.689Z,98070.00
2022-12-08T03:04:09.638Z,98067.56
2022-12-08T03:06:32.601Z,98062.16
2022-12-08T03:09:16.367Z,98067.56
2022-12-08T03:11:45.162Z,98058.34
2022-12-08T03:13:51.450Z,98056.72
2022-12-08T03:15:55.804Z,98056.72
2022-12-08T03:18:00.733Z,98060.25
2022-12-08T03:20:06.629Z,98052.94
2022-12-08T03:22:09.541Z,98049.19
2022-12-08T03:24:12.985Z,98044.81
2022-12-08T03:26:27.460Z,98043.75
2022-12-08T03:28:31.817Z,98040.00
2022-12-08T03:30:38.801Z,98036.69
2022-12-08T03:32:51.053Z,98045.66
2022-12-08T03:34:54.446Z,98041.63
2022-12-08T03:36:55.974Z,98028.34
2022-12-08T03:39:00.280Z,98027.03
2022-12-08T03:41:20.044Z,98028.91
2022-12-08T03:43:21.692Z,98031.28
2022-12-08T03:45:26.202Z,98028.56
2022-12-08T03:47:27.883Z,98024.81
2022-12-08T03:49:31.958Z,98021.28
2022-12-08T03:51:33.495Z,98020.44
2022-12-08T03:53:35.065Z,98016.09
2022-12-08T03:55:39.567Z,98019.63
2022-12-08T03:57:41.310Z,98016.09
2022-12-08T03:59:42.770Z,98019.88
2022-12-08T04:01:44.384Z,98015.28
2022-12-08T04:03:46.162Z,98009.03
2022-12-08T04:05:49.523Z,98012.81
2022-12-08T04:07:51.192Z,98007.41
2022-12-08T04:09:55.344Z,98004.09
2022-12-08T04:11:56.983Z,98007.63
2022-12-08T04:13:58.699Z,98011.16
2022-12-08T04:16:00.385Z,98002.47
2022-12-08T04:18:02.187Z,98008.44
2022-12-08T04:20:07.443Z,98004.91
2022-12-08T04:22:09.130Z,98008.44
2022-12-08T04:24:10.605Z,98002.22
2022-12-08T04:26:12.666Z,97999.50
2022-12-08T04:28:14.722Z,98001.16
2022-12-08T04:30:16.438Z,98000.34
2022-12-08T04:32:17.991Z,97995.97
2022-12-08T04:34:19.771Z,97997.25
2022-12-08T04:36:24.343Z,98001.88
2022-12-08T04:38:26.033Z,98001.88
2022-12-08T04:40:27.510Z,97997.25
2022-12-08T04:42:29.161Z,97996.47
2022-12-08T04:44:30.682Z,97992.09
2022-12-08T04:46:32.220Z,97998.56
2022-12-08T04:48:39.603Z,98000.22
2022-12-08T04:50:42.525Z,97998.34
2022-12-08T04:52:44.232Z,97992.94
2022-12-08T04:54:50.056Z,97993.16
2022-12-08T04:56:54.671Z,97992.09
2022-12-08T04:58:58.955Z,97993.16
2022-12-08T05:01:00.600Z,97997.53
2022-12-08T05:03:02.423Z,97988.56
2022-12-08T05:05:07.104Z,97991.53
2022-12-08T05:07:08.661Z,97990.94
2022-12-08T05:09:10.369Z,97997.16
2022-12-08T05:11:13.047Z,98000.69
2022-12-08T05:13:14.537Z,97992.81
2022-12-08T05:15:16.166Z,97993.41
2022-12-08T05:17:18.689Z,97993.16
2022-12-08T05:19:20.239Z,97995.84
2022-12-08T05:21:21.732Z,97996.94
2022-12-08T05:23:23.322Z,97985.28
2022-12-08T05:25:24.905Z,97986.13
2022-12-08T05:27:26.924Z,97992.34
2022-12-08T05:29:28.622Z,97988.56
2022-12-08T05:31:30.270Z,97986.94
2022-12-08T05:33:31.838Z,97985.28
2022-12-08T05:35:33.325Z,97985.53
2022-12-08T05:37:35.729Z,97988.25
2022-12-08T05:39:37.469Z,97981.16
2022-12-08T05:41:39.357Z,97985.53
2022-12-08T05:43:41.008Z,97988.25
2022-12-08T05:45:42.738Z,97989.28
2022-12-08T05:47:44.461Z,97993.31
2022-12-08T05:49:46.251Z,97990.03
2022-12-08T05:51:47.764Z,97984.81
2022-12-08T05:53:51.008Z,97984.03
2022-12-08T05:55:53.362Z,97987.53
2022-12-08T05:57:54.898Z,97982.94
2022-12-08T05:59:57.259Z,97982.13
2022-12-08T06:02:01.581Z,97985.44
2022-12-08T06:04:04.234Z,97981.63
2022-12-08T06:06:05.917Z,97978.94
2022-12-08T06:08:07.939Z,97980.00
2022-12-08T06:10:09.943Z,97977.31
2022-12-08T06:12:19.060Z,97981.06
2022-12-08T06:14:20.816Z,97983.53
2022-12-08T06:16:22.857Z,97981.06
2022-12-08T06:18:28.331Z,97981.06
2022-12-08T06:20:33.112Z,97981.31
2022-12-08T06:22:42.075Z,97983.78
2022-12-08T06:24:43.780Z,97980.25
2022-12-08T06:26:46.932Z,97986.22
2022-12-08T06:28:49.429Z,97980.00
2022-12-08T06:30:51.176Z,97985.75
2022-12-08T06:32:52.671Z,97988.47
2022-12-08T06:34:54.222Z,97989.28
2022-12-08T06:36:55.785Z,97983.88
2022-12-08T06:38:57.357Z,97981.16
2022-12-08T06:40:59.893Z,97987.63
2022-12-08T06:43:01.560Z,97983.03
2022-12-08T06:45:06.923Z,97984.94
2022-12-08T06:47:11.540Z,97986.00
2022-12-08T06:49:13.044Z,97984.59
2022-12-08T06:51:17.934Z,97987.06
2022-12-08T06:53:19.558Z,97985.44
2022-12-08T06:55:50.582Z,97992.16
2022-12-08T06:57:42.686Z,97985.06
2022-12-08T06:59:44.856Z,97984.25
2022-12-08T07:01:46.892Z,97986.38
2022-12-08T07:03:48.602Z,97989.56
2022-12-08T07:05:50.165Z,97996.03
2022-12-08T07:07:54.630Z,97980.03
2022-12-08T07:09:56.339Z,97996.50
2022-12-08T07:11:59.017Z,97993.56
2022-12-08T07:14:00.654Z,97991.09
2022-12-08T07:16:09.075Z,97992.72
2022-12-08T07:18:10.686Z,97996.50
2022-12-08T07:20:12.730Z,97989.44
2022-12-08T07:22:14.411Z,97988.63
2022-12-08T07:24:15.848Z,97988.88
2022-12-08T07:26:17.929Z,97983.19
2022-12-08T07:28:19.461Z,97991.56
2022-12-08T07:30:21.316Z,97996.72
2022-12-08T07:32:23.190Z,97991.56
2022-12-08T07:34:24.756Z,97994.84
2022-12-08T07:36:26.499Z,97995.91
2022-12-08T07:38:30.790Z,97998.63
2022-12-08T07:40:34.557Z,97997.81
2022-12-08T07:42:36.275Z,97995.31
2022-12-08T07:44:37.926Z,98002.03
2022-12-08T07:46:39.533Z,98000.16
2022-12-08T07:48:47.464Z,97992.03
2022-12-08T07:51:01.395Z,97993.34
2022-12-08T07:53:03.076Z,97989.81
2022-12-08T07:55:07.645Z,97986.88
2022-12-08T07:57:09.906Z,97986.28
2022-12-08T07:59:11.572Z,97987.09
2022-12-08T08:01:29.069Z,97986.28
2022-12-08T08:03:32.764Z,97984.41
2022-12-08T08:05:34.737Z,97987.94
2022-12-08T08:07:37.148Z,97984.19
2022-12-08T08:09:38.936Z,97983.34
2022-12-08T08:11:40.544Z,97989.59
2022-12-08T08:13:42.279Z,97982.50
2022-12-08T08:15:44.172Z,97984.41
2022-12-08T08:17:58.001Z,97985.22
2022-12-08T08:19:59.937Z,97989.81
2022-12-08T08:22:01.512Z,97988.75
2022-12-08T08:24:03.050Z,97985.81
2022-12-08T08:26:05.977Z,97986.63
2022-12-08T08:28:07.527Z,97984.19
2022-12-08T08:30:16.601Z,97986.06
2022-12-08T08:32:27.862Z,97985.22
2022-12-08T08:34:29.426Z,97990.38
2022-12-08T08:36:31.258Z,97983.34
2022-12-08T08:38:32.871Z,97984.50
2022-12-08T08:40:34.885Z,97991.00
2022-12-08T08:42:36.523Z,97988.28
2022-12-08T08:44:38.918Z,97987.22
2022-12-08T08:46:41.432Z,97989.91
2022-12-08T08:48:43.158Z,97986.16
2022-12-08T08:50:44.866Z,97983.19
2022-12-08T08:52:46.512Z,97980.28
2022-12-08T08:54:48.247Z,97982.97
2022-12-08T08:56:50.145Z,97979.81
2022-12-08T08:58:54.752Z,97973.31
2022-12-08T09:00:57.603Z,97979.81
2022-12-08T09:02:59.191Z,97987.41
2022-12-08T09:05:00.939Z,97986.84
2022-12-08T09:07:02.749Z,97986.63
2022-12-08T09:09:04.333Z,97979.91
2022-12-08T09:11:06.533Z,97976.94
2022-12-08T09:13:08.669Z,97980.50
2022-12-08T09:15:10.381Z,97982.94
2022-12-08T09:17:12.530Z,97985.19
2022-12-08T09:19:14.077Z,97984.34
2022-12-08T09:21:22.441Z,97977.06
2022-12-08T09:23:24.268Z,97982.47
2022-12-08T09:25:25.835Z,97978.72
2022-12-08T09:27:27.631Z,97982.00
2022-12-08T09:29:35.382Z,97980.91
2022-12-08T09:31:38.226Z,97976.91
2022-12-08T09:33:39.892Z,97981.03
2022-12-08T09:35:41.616Z,97981.03
2022-12-08T09:37:43.335Z,97977.25
2022-12-08T09:39:44.940Z,97969.72
2022-12-08T09:41:51.983Z,97972.78
2022-12-08T09:44:13.412Z,97973.34
2022-12-08T09:46:18.158Z,97971.47
2022-12-08T09:48:24.286Z,97968.28
2022-12-08T09:50:31.857Z,97966.16
2022-12-08T09:52:44.295Z,97964.28
2022-12-08T09:54:45.956Z,97962.13
2022-12-08T09:56:49.298Z,97964.59
2022-12-08T09:58:53.910Z,97964.38
2022-12-08T10:00:56.395Z,97957.66
2022-12-08T10:03:00.155Z,97948.44
2022-12-08T10:05:01.771Z,97950.94
2022-12-08T10:07:16.390Z,97949.63
2022-12-08T10:09:41.742Z,97946.41
2022-12-08T10:12:00.042Z,97941.81
2022-12-08T10:14:28.293Z,97945.59
2022-12-08T10:16:41.290Z,97939.44
2022-12-08T10:18:43.260Z,97945.69
2022-12-08T10:20:48.522Z,97938.97
2022-12-08T10:23:02.608Z,97930.59
2022-12-08T10:25:44.670Z,97932.25
2022-12-08T10:27:53.429Z,97929.53
2022-12-08T10:29:55.081Z,97927.97
2022-12-08T10:31:59.593Z,97923.69
2022-12-08T10:34:19.234Z,97917.47
2022-12-08T10:36:20.876Z,97921.56
2022-12-08T10:38:42.754Z,97924.03
2022-12-08T10:40:46.621Z,97917.28
2022-12-08T10:42:52.389Z,97915.16
2022-12-08T10:45:11.732Z,97910.91
2022-12-08T10:47:14.403Z,97913.38
2022-12-08T10:49:26.867Z,97902.53
2022-12-08T10:51:35.529Z,97906.13
2022-12-08T10:53:46.417Z,97902.34
2022-12-08T10:56:07.594Z,97899.16
2022-12-08T10:58:47.618Z,97899.72
2022-12-08T11:00:53.759Z,97904.66
2022-12-08T11:03:04.205Z,97900.88
2022-12-08T11:05:06.691Z,97891.16
2022-12-08T11:07:11.999Z,97893.66
2022-12-08T11:09:18.156Z,97894.22
2022-12-08T11:11:26.005Z,97888.53
2022-12-08T11:13:31.290Z,97886.41
2022-12-08T11:15:39.982Z,97883.47
2022-12-08T11:17:43.928Z,97876.72
2022-12-08T11:19:58.924Z,97884.59
2022-12-08T11:22:00.475Z,97871.38
2022-12-08T11:24:16.803Z,97875.13
2022-12-08T11:26:35.544Z,97867.81
2022-12-08T11:28:37.977Z,97872.50
2022-12-08T11:30:47.582Z,97866.00
2022-12-08T11:32:53.577Z,97861.97
2022-12-08T11:35:24.536Z,97852.53
2022-12-08T11:37:37.363Z,97854.97
2022-12-08T11:39:45.887Z,97857.19
2022-12-08T11:41:48.794Z,97857.75
2022-12-08T11:44:10.868Z,97860.25
2022-12-08T11:46:22.366Z,97855.94
2022-12-08T11:48:37.288Z,97852.72
2022-12-08T11:50:43.549Z,97845.16
2022-12-08T11:52:50.965Z,97849.53
2022-12-08T11:55:04.500Z,97852.81
2022-12-08T11:57:12.775Z,97847.94
2022-12-08T11:59:41.877Z,97844.41
2022-12-08T12:01:43.547Z,97846.88
2022-12-08T12:03:52.976Z,97843.34
2022-12-08T12:07:00.373Z,97838.97
2022-12-08T12:09:23.679Z,97836.84
2022-12-08T12:11:57.453Z,97845.00
2022-12-08T12:14:39.793Z,97832.22
2022-12-08T12:17:21.367Z,97834.69
2022-12-08T12:19:24.831Z,97831.97
2022-12-08T12:21:34.614Z,97834.44
2022-12-08T12:23:36.271Z,97828.78
2022-12-08T12:25:45.459Z,97826.06
2022-12-08T12:27:49.400Z,97826.84
2022-12-08T12:29:57.679Z,97821.44
2022-12-08T12:32:11.017Z,97823.34
2022-12-08T12:34:25.693Z,97820.38
2022-12-08T12:36:27.764Z,97824.47
2022-12-08T12:38:57.544Z,97824.13
2022-12-08T12:41:04.379Z,97820.38
2022-12-08T12:43:05.990Z,97822.03
2022-12-08T12:45:16.818Z,97832.03
2022-12-08T12:47:49.714Z,97819.31
2022-12-08T12:50:08.266Z,97821.75
2022-12-08T12:52:09.892Z,97825.28
2022-12-08T12:54:23.060Z,97829.34
2022-12-08T12:56:57.424Z,97825.22
2022-12-08T12:59:29.931Z,97819.81
2022-12-08T13:01:50.761Z,97827.63
2022-12-08T13:04:10.723Z,97816.25
2022-12-08T13:06:16.317Z,97818.72
2022-12-08T13:08:23.975Z,97823.34
2022-12-08T13:10:34.683Z,97819.31
2022-12-08T13:12:36.561Z,97827.44
2022-12-08T13:14:47.075Z,97816.59
2022-12-08T13:16:55.092Z,97812.22
2022-12-08T13:19:05.305Z,97809.50
2022-12-08T13:21:10.182Z,97806.78
2022-12-08T13:23:36.178Z,97800.81
2022-12-08T13:25:40.527Z,97798.91
2022-12-08T13:27:52.511Z,97801.63
2022-12-08T13:30:31.814Z,97798.59
2022-12-08T13:33:17.282Z,97794.81
2022-12-08T13:35:18.112Z,97798.59
2022-12-08T13:37:30.995Z,97799.66
2022-12-08T13:39:42.060Z,97796.94
2022-12-08T13:41:52.092Z,97790.44
2022-12-08T13:45:03.602Z,97789.41
2022-12-08T13:57:02.634Z,97793.72
2022-12-08T13:58:51.828Z,97789.13
2022-12-08T14:00:55.492Z,97791.56
2022-12-08T14:02:59.769Z,97789.44
2022-12-08T14:05:18.215Z,97794.06
2022-12-08T14:07:21.315Z,97794.06
2022-12-08T14:09:27.246Z,97794.63
2022-12-08T14:11:37.296Z,97794.88
2022-12-08T14:13:38.899Z,97790.50
2022-12-08T14:15:41.050Z,97793.56
2022-12-08T14:17:52.116Z,97793.56
2022-12-08T14:20:19.600Z,97792.16
2022-12-08T14:22:21.201Z,97796.25
2022-12-08T14:24:31.225Z,97796.50
2022-12-08T14:26:34.828Z,97793.22
2022-12-08T14:28:43.040Z,97795.94
2022-12-08T14:30:48.779Z,97799.47
2022-12-08T14:32:54.055Z,97789.44
2022-12-08T14:34:58.193Z,97796.50
2022-12-08T14:36:59.941Z,97794.88
2022-12-08T14:39:01.599Z,97788.34
2022-12-08T14:41:08.659Z,97795.94
2022-12-08T14:43:10.282Z,97797.84
2022-12-08T14:45:14.170Z,97797.28
2022-12-08T14:47:21.022Z,97798.59
2022-12-08T14:49:34.045Z,97795.31
2022-12-08T14:51:40.296Z,97796.16
2022-12-08T14:53:59.125Z,97795.56
2022-12-08T14:56:00.939Z,97788.75
2022-12-08T14:58:03.385Z,97786.03
2022-12-08T15:00:11.209Z,97794.88
2022-12-08T15:02:15.416Z,97798.91
2022-12-08T15:04:28.626Z,97795.06
2022-12-08T15:07:02.556Z,97804.53
2022-12-08T15:09:28.806Z,97801.50
2022-12-08T15:11:33.642Z,97804.47
2022-12-08T15:13:35.229Z,97804.97
2022-12-08T15:15:55.300Z,97808.75
2022-12-08T15:18:19.235Z,97802.78
2022-12-08T15:20:56.954Z,97800.56
2022-12-08T15:22:58.518Z,97809.75
2022-12-08T15:25:00.657Z,97803.50
2022-12-08T15:27:03.763Z,97801.88
2022-12-08T15:29:24.653Z,97801.56
2022-12-08T15:31:26.497Z,97798.84
2022-12-08T15:33:28.106Z,97798.28
2022-12-08T15:35:29.596Z,97798.28
2022-12-08T15:37:31.084Z,97803.69
2022-12-08T15:39:37.681Z,97798.50
2022-12-08T15:41:39.428Z,97798.28
2022-12-08T15:43:41.056Z,97792.03
2022-12-08T15:45:53.392Z,97796.63
2022-12-08T15:48:00.771Z,97797.72
2022-12-08T15:50:04.684Z,97798.78
2022-12-08T15:52:13.408Z,97800.91
2022-12-08T15:54:15.326Z,97795.00
2022-12-08T15:56:27.357Z,97796.31
2022-12-08T16:00:54.223Z,97794.34
2022-12-08T16:05:42.192Z,97801.41
2022-12-08T16:07:40.901Z,97799.53
2022-12-08T16:09:43.633Z,97799.75
2022-12-08T16:12:07.228Z,97798.72
2022-12-08T16:14:48.714Z,97799.19
2022-12-08T16:16:31.365Z,97790.84
2022-12-08T16:18:35.885Z,97792.72
2022-12-08T16:21:06.186Z,97791.06
2022-12-08T16:23:13.427Z,97793.78
2022-12-08T16:25:22.637Z,97793.22
2022-12-08T16:29:52.534Z,97795.94
2022-12-08T16:31:54.193Z,97793.22
2022-12-08T16:33:55.900Z,97803.00
2022-12-08T16:35:57.392Z,97791.56
2022-12-08T16:37:58.929Z,97800.78
2022-12-08T16:40:00.582Z,97804.56
2022-12-08T16:42:20.912Z,97802.94
2022-12-08T16:44:22.430Z,97804.25
2022-12-08T16:46:26.945Z,97804.00
2022-12-08T16:48:28.911Z,97798.00
2022-12-08T16:50:33.559Z,97800.16
2022-12-08T16:52:35.563Z,97796.34
2022-12-08T16:54:37.251Z,97800.94
2022-12-08T16:56:38.945Z,97802.88
2022-12-08T16:58:40.461Z,97803.66
2022-12-08T17:00:42.118Z,97803.66
2022-12-08T17:02:45.109Z,97800.66
2022-12-08T17:04:46.834Z,97796.84
2022-12-08T17:06:50.847Z,97804.41
2022-12-08T17:08:52.317Z,97802.78
2022-12-08T17:11:07.259Z,97799.81
2022-12-08T17:13:09.250Z,97795.22
2022-12-08T17:15:14.840Z,97794.41
2022-12-08T17:17:16.700Z,97795.22
2022-12-08T17:19:18.946Z,97794.41
2022-12-08T17:21:20.719Z,97800.09
2022-12-08T17:23:22.255Z,97799.00
2022-12-08T17:25:25.151Z,97796.28
2022-12-08T17:27:27.188Z,97799.00
2022-12-08T17:29:28.743Z,97790.03
2022-12-08T17:31:32.048Z,97788.16
2022-12-08T17:33:33.832Z,97790.84
2022-12-08T17:35:35.355Z,97788.16
2022-12-08T17:37:37.036Z,97790.84
2022-12-08T17:39:39.279Z,97779.19
2022-12-08T17:41:41.141Z,97788.97
2022-12-08T17:43:42.906Z,97788.16
2022-12-08T17:45:48.019Z,97783.81
2022-12-08T17:47:49.573Z,97788.63
2022-12-08T17:49:51.163Z,97778.63
2022-12-08T17:51:56.425Z,97773.69
2022-12-08T17:53:57.972Z,97778.88
2022-12-08T17:55:59.563Z,97777.22
2022-12-08T17:58:01.919Z,97785.94
2022-12-08T18:00:05.391Z,97786.19
2022-12-08T18:02:13.544Z,97786.19
2022-12-08T18:04:15.096Z,97792.44
2022-12-08T18:06:17.577Z,97790.78
2022-12-08T18:08:19.340Z,97792.09
2022-12-08T18:10:21.567Z,97789.16
2022-12-08T18:12:23.959Z,97783.75
2022-12-08T18:14:26.385Z,97785.84
2022-12-08T18:16:28.039Z,97789.66
2022-12-08T18:18:29.745Z,97791.28
2022-12-08T18:20:31.555Z,97784.22
2022-12-08T18:22:33.395Z,97783.41
2022-12-08T18:24:35.020Z,97790.72
2022-12-08T18:26:36.750Z,97784.72
2022-12-08T18:28:39.058Z,97785.78
2022-12-08T18:30:40.873Z,97782.28
2022-12-08T18:32:42.742Z,97790.63
2022-12-08T18:34:44.569Z,97787.38
2022-12-08T18:36:46.557Z,97788.19
2022-12-08T18:38:48.943Z,97780.28
2022-12-08T18:40:50.582Z,97778.41
2022-12-08T18:42:52.314Z,97774.88
2022-12-08T18:44:59.309Z,97775.69
2022-12-08T18:47:01.045Z,97772.97
2022-12-08T18:49:02.736Z,97779.22
2022-12-08T18:51:10.224Z,97770.75
2022-12-08T18:53:11.861Z,97773.25
2022-12-08T18:55:14.404Z,97774.06
2022-12-08T18:57:17.306Z,97772.16
2022-12-08T18:59:20.384Z,97769.72
2022-12-08T19:01:22.494Z,97774.06
2022-12-08T19:03:24.486Z,97774.88
2022-12-08T19:05:26.252Z,97775.69
2022-12-08T19:07:27.982Z,97781.59
2022-12-08T19:09:29.917Z,97764.56
2022-12-08T19:11:31.680Z,97769.16
2022-12-08T19:13:33.269Z,97763.94
2022-12-08T19:15:35.086Z,97767.50
2022-12-08T19:17:36.806Z,97769.16
2022-12-08T19:19:38.471Z,97774.56
2022-12-08T19:21:44.725Z,97769.16
2022-12-08T19:23:47.994Z,97766.94
2022-12-08T19:25:49.527Z,97774.22
2022-12-08T19:27:51.347Z,97765.53
2022-12-08T19:29:52.947Z,97763.66
2022-12-08T19:31:54.775Z,97762.56
2022-12-08T19:33:56.907Z,97760.38
2022-12-08T19:35:58.722Z,97758.72
2022-12-08T19:38:00.445Z,97769.56
2022-12-08T19:40:20.948Z,97773.09
2022-12-08T19:42:41.987Z,97771.94
2022-12-08T19:44:52.772Z,97770.81
2022-12-08T19:46:54.613Z,97769.16
2022-12-08T19:48:57.366Z,97770.47
2022-12-08T19:50:59.263Z,97768.84
2022-12-08T19:53:01.642Z,97773.44
2022-12-08T19:55:03.484Z,97775.88
2022-12-08T19:57:05.298Z,97769.34
2022-12-08T19:59:07.890Z,97769.00
2022-12-08T20:01:09.948Z,97760.31
2022-12-08T20:03:20.315Z,97767.59
2022-12-08T20:05:22.249Z,97773.84
2022-12-08T20:07:23.832Z,97767.84
2022-12-08T20:09:25.709Z,97763.50
2022-12-08T20:11:27.337Z,97771.63
2022-12-08T20:13:40.910Z,97763.19
2022-12-08T20:15:45.122Z,97768.03
2022-12-08T20:17:46.849Z,97766.03
2022-12-08T20:19:48.663Z,97762.28
2022-12-08T20:21:50.306Z,97767.97
2022-12-08T20:23:52.088Z,97767.13
2022-12-08T20:25:53.694Z,97766.31
2022-12-08T20:27:55.471Z,97767.13
2022-12-08T20:29:57.329Z,97771.72
2022-12-08T20:31:59.078Z,97766.56
2022-12-08T20:34:01.638Z,97767.63
2022-12-08T20:36:06.523Z,97765.97
2022-12-08T20:38:08.382Z,97763.25
2022-12-08T20:40:10.507Z,97761.63
2022-12-08T20:42:15.149Z,97765.09
2022-12-08T20:44:16.872Z,97760.47
2022-12-08T20:46:20.274Z,97772.13
2022-12-08T20:48:22.158Z,97768.84
2022-12-08T20:50:23.889Z,97776.41
2022-12-08T20:52:25.654Z,97773.13
2022-12-08T20:54:28.350Z,97777.72
2022-12-08T20:56:31.697Z,97774.44
2022-12-08T20:58:33.588Z,97790.34
2022-12-08T21:00:35.269Z,97783.03
2022-12-08T21:02:41.635Z,97777.84
2022-12-08T21:04:47.284Z,97779.16
2022-12-08T21:06:50.363Z,97777.53
2022-12-08T21:08:52.154Z,97775.88
2022-12-08T21:10:55.469Z,97777.19
2022-12-08T21:12:57.044Z,97778.28
2022-12-08T21:14:59.020Z,97780.16
2022-12-08T21:17:00.997Z,97782.03
2022-12-08T21:19:02.762Z,97780.38
2022-12-08T21:21:07.701Z,97777.69
2022-12-08T21:23:09.517Z,97775.22
2022-12-08T21:25:11.419Z,97777.38
2022-12-08T21:27:13.751Z,97775.72
2022-12-08T21:29:21.943Z,97780.28
2022-12-08T21:31:26.037Z,97773.25
2022-12-08T21:33:30.409Z,97772.66
2022-12-08T21:35:32.785Z,97775.03
2022-12-08T21:37:34.754Z,97781.28
2022-12-08T21:39:37.337Z,97771.25
2022-12-08T21:41:58.671Z,97772.34
2022-12-08T21:44:00.365Z,97773.41
2022-12-08T21:46:02.460Z,97776.34
2022-12-08T21:48:10.880Z,97777.97
2022-12-08T21:50:14.000Z,97777.19
2022-12-08T21:52:15.758Z,97775.28
2022-12-08T21:54:19.281Z,97784.69
2022-12-08T21:56:21.108Z,97776.59
2022-12-08T21:58:22.905Z,97771.69
2022-12-08T22:00:24.784Z,97769.78
2022-12-08T22:02:26.908Z,97782.50
2022-12-08T22:04:29.062Z,97776.00
2022-12-08T22:06:31.304Z,97776.00
2022-12-08T22:08:33.262Z,97779.53
2022-12-08T22:10:35.270Z,97777.88
2022-12-08T22:12:38.173Z,97776.25
2022-12-08T22:14:40.405Z,97780.84
2022-12-08T22:16:43.299Z,97781.91
2022-12-08T22:18:45.233Z,97777.31
2022-12-08T22:20:47.090Z,97777.56
2022-12-08T22:22:49.296Z,97776.75
2022-12-08T22:24:51.205Z,97777.00
2022-12-08T22:26:52.980Z,97777.00
2022-12-08T22:28:54.781Z,97778.06
2022-12-08T22:30:56.733Z,97771.81
2022-12-08T22:32:58.884Z,97765.00
2022-12-08T22:35:00.574Z,97775.00
2022-12-08T22:37:02.514Z,97767.13
2022-12-08T22:39:04.741Z,97763.03
2022-12-08T22:41:06.957Z,97765.66
2022-12-08T22:43:09.137Z,97771.06
2022-12-08T22:45:11.901Z,97769.41
2022-12-08T22:47:13.849Z,97768.00
2022-12-08T22:49:15.611Z,97765.53
2022-12-08T22:51:17.871Z,97765.81
2022-12-08T22:53:20.340Z,97764.41
2022-12-08T22:55:22.352Z,97763.78
2022-12-08T22:57:23.990Z,97759.13
2022-12-08T22:59:25.525Z,97758.53
2022-12-08T23:01:30.374Z,97762.28
2022-12-08T23:03:33.340Z,97754.69
2022-12-08T23:05:37.047Z,97760.31
2022-12-08T23:07:39.617Z,97753.50
2022-12-08T23:09:41.312Z,97755.88
2022-12-08T23:11:44.225Z,97751.97
2022-12-08T23:13:46.332Z,97747.88
2022-12-08T23:15:48.194Z,97752.72
2022-12-08T23:17:50.169Z,97750.47
2022-12-08T23:19:51.860Z,97748.25
2022-12-08T23:21:53.758Z,97758.47
2022-12-08T23:24:01.063Z,97754.38
2022-12-08T23:26:03.034Z,97745.13
2022-12-08T23:28:04.788Z,97746.41
2022-12-08T23:30:08.236Z,97750.63
2022-12-08T23:32:09.966Z,97752.75
2022-12-08T23:34:12.120Z,97747.81
2022-12-08T23:36:16.052Z,97742.09
2022-12-08T23:38:18.297Z,97743.41
2022-12-08T23:40:20.156Z,97743.88
2022-12-08T23:42:21.741Z,97744.34
2022-12-08T23:44:23.377Z,97743.75
2022-12-08T23:46:25.426Z,97742.59
2022-12-08T23:48:29.138Z,97752.00
2022-12-08T23:50:30.834Z,97750.59
2022-12-08T23:52:32.659Z,97748.38
2022-12-08T23:54:35.895Z,97739.69
2022-12-08T23:56:37.811Z,97734.16
2022-12-08T23:58:40.644Z,97733.34
